sensor_id;sensor_type;location;lat;lon;timestamp;temperature;humidity
33837;DHT22;20140;49.356;8.812;2023-02-15T00:01:44;0.90;99.90
33837;DHT22;20140;49.356;8.812;2023-02-15T00:04:13;0.90;99.90
33837;DHT22;20140;49.356;8.812;2023-02-15T00:06:39;0.80;99.90
33837;DHT22;20140;49.356;8.812;2023-02-15T00:09:04;0.80;99.90
33837;DHT22;20140;49.356;8.812;2023-02-15T00:11:30;0.90;99.90
33837;DHT22;20140;49.356;8.812;2023-02-15T00:14:14;1.00;99.90
33837;DHT22;20140;49.356;8.812;2023-02-15T00:16:40;0.90;99.90
33837;DHT22;20140;49.356;8.812;2023-02-15T00:19:07;0.90;99.90
33837;DHT22;20140;49.356;8.812;2023-02-15T00:21:35;1.00;99.90
33837;DHT22;20140;49.356;8.812;2023-02-15T00:24:03;1.00;99.90
33837;DHT22;20140;49.356;8.812;2023-02-15T00:26:28;1.00;99.90
33837;DHT22;20140;49.356;8.812;2023-02-15T00:28:55;1.10;99.90
33837;DHT22;20140;49.356;8.812;2023-02-15T00:31:21;1.20;99.90
33837;DHT22;20140;49.356;8.812;2023-02-15T00:33:47;1.30;99.90
33837;DHT22;20140;49.356;8.812;2023-02-15T00:36:13;1.30;99.90
33837;DHT22;20140;49.356;8.812;2023-02-15T00:38:39;1.30;99.90
33837;DHT22;20140;49.356;8.812;2023-02-15T00:41:06;1.20;99.90
33837;DHT22;20140;49.356;8.812;2023-02-15T00:43:33;1.30;99.90
33837;DHT22;20140;49.356;8.812;2023-02-15T00:45:59;1.30;99.90
33837;DHT22;20140;49.356;8.812;2023-02-15T00:48:26;1.30;99.90
33837;DHT22;20140;49.356;8.812;2023-02-15T00:50:54;1.30;99.90
33837;DHT22;20140;49.356;8.812;2023-02-15T00:53:20;1.20;99.90
33837;DHT22;20140;49.356;8.812;2023-02-15T00:55:46;1.30;99.90
33837;DHT22;20140;49.356;8.812;2023-02-15T00:58:12;1.40;99.90
33837;DHT22;20140;49.356;8.812;2023-02-15T01:00:39;1.20;99.90
33837;DHT22;20140;49.356;8.812;2023-02-15T01:03:04;1.00;99.90
33837;DHT22;20140;49.356;8.812;2023-02-15T01:05:31;1.20;99.90
33837;DHT22;20140;49.356;8.812;2023-02-15T01:07:57;1.40;99.90
33837;DHT22;20140;49.356;8.812;2023-02-15T01:10:23;1.40;99.90
33837;DHT22;20140;49.356;8.812;2023-02-15T01:12:52;1.40;99.90
33837;DHT22;20140;49.356;8.812;2023-02-15T01:15:18;1.40;99.90
33837;DHT22;20140;49.356;8.812;2023-02-15T01:17:44;1.30;99.90
33837;DHT22;20140;49.356;8.812;2023-02-15T01:20:23;1.10;99.90
33837;DHT22;20140;49.356;8.812;2023-02-15T01:22:49;1.10;99.90
33837;DHT22;20140;49.356;8.812;2023-02-15T01:25:16;1.20;99.90
33837;DHT22;20140;49.356;8.812;2023-02-15T01:27:42;1.30;99.90
33837;DHT22;20140;49.356;8.812;2023-02-15T01:30:08;1.20;99.90
33837;DHT22;20140;49.356;8.812;2023-02-15T01:32:34;1.30;99.90
33837;DHT22;20140;49.356;8.812;2023-02-15T01:35:00;1.10;99.90
33837;DHT22;20140;49.356;8.812;2023-02-15T01:37:25;1.20;99.90
33837;DHT22;20140;49.356;8.812;2023-02-15T01:39:51;1.20;99.90
33837;DHT22;20140;49.356;8.812;2023-02-15T01:42:22;1.30;99.90
33837;DHT22;20140;49.356;8.812;2023-02-15T01:47:39;1.30;99.90
33837;DHT22;20140;49.356;8.812;2023-02-15T01:52:52;1.20;99.90
33837;DHT22;20140;49.356;8.812;2023-02-15T01:55:24;1.10;99.90
33837;DHT22;20140;49.356;8.812;2023-02-15T01:57:50;1.20;99.90
33837;DHT22;20140;49.356;8.812;2023-02-15T02:00:16;1.20;99.90
33837;DHT22;20140;49.356;8.812;2023-02-15T02:02:43;1.30;99.90
33837;DHT22;20140;49.356;8.812;2023-02-15T02:05:10;1.40;99.90
33837;DHT22;20140;49.356;8.812;2023-02-15T02:07:40;1.40;99.90
33837;DHT22;20140;49.356;8.812;2023-02-15T02:10:07;1.50;99.90
33837;DHT22;20140;49.356;8.812;2023-02-15T02:12:34;1.50;99.90
33837;DHT22;20140;49.356;8.812;2023-02-15T02:15:00;1.50;99.90
33837;DHT22;20140;49.356;8.812;2023-02-15T02:20:50;1.40;99.90
33837;DHT22;20140;49.356;8.812;2023-02-15T02:23:33;1.40;99.90
33837;DHT22;20140;49.356;8.812;2023-02-15T02:29:19;1.60;99.90
33837;DHT22;20140;49.356;8.812;2023-02-15T02:37:37;1.40;99.90
33837;DHT22;20140;49.356;8.812;2023-02-15T02:40:21;1.40;99.90
33837;DHT22;20140;49.356;8.812;2023-02-15T02:42:59;1.40;99.90
33837;DHT22;20140;49.356;8.812;2023-02-15T02:45:39;1.60;99.90
33837;DHT22;20140;49.356;8.812;2023-02-15T02:48:16;1.60;99.90
33837;DHT22;20140;49.356;8.812;2023-02-15T02:50:43;1.50;99.90
33837;DHT22;20140;49.356;8.812;2023-02-15T02:53:09;1.60;99.90
33837;DHT22;20140;49.356;8.812;2023-02-15T02:55:46;1.50;99.90
33837;DHT22;20140;49.356;8.812;2023-02-15T03:03:30;1.50;99.90
33837;DHT22;20140;49.356;8.812;2023-02-15T03:06:00;1.50;99.90
33837;DHT22;20140;49.356;8.812;2023-02-15T03:08:37;1.50;99.90
33837;DHT22;20140;49.356;8.812;2023-02-15T03:11:04;1.50;99.90
33837;DHT22;20140;49.356;8.812;2023-02-15T03:13:30;1.50;99.90
33837;DHT22;20140;49.356;8.812;2023-02-15T03:15:56;1.50;99.90
33837;DHT22;20140;49.356;8.812;2023-02-15T03:18:46;1.50;99.90
33837;DHT22;20140;49.356;8.812;2023-02-15T03:21:20;1.60;99.90
33837;DHT22;20140;49.356;8.812;2023-02-15T03:23:51;1.50;99.90
33837;DHT22;20140;49.356;8.812;2023-02-15T03:26:18;1.50;99.90
33837;DHT22;20140;49.356;8.812;2023-02-15T03:28:47;1.50;99.90
33837;DHT22;20140;49.356;8.812;2023-02-15T03:31:15;1.60;99.90
33837;DHT22;20140;49.356;8.812;2023-02-15T03:33:48;1.50;99.90
33837;DHT22;20140;49.356;8.812;2023-02-15T03:36:29;1.60;99.90
33837;DHT22;20140;49.356;8.812;2023-02-15T03:39:09;1.60;99.90
33837;DHT22;20140;49.356;8.812;2023-02-15T03:41:42;1.30;99.90
33837;DHT22;20140;49.356;8.812;2023-02-15T03:44:25;1.40;99.90
33837;DHT22;20140;49.356;8.812;2023-02-15T03:46:58;1.50;99.90
33837;DHT22;20140;49.356;8.812;2023-02-15T03:51:56;1.60;99.90
33837;DHT22;20140;49.356;8.812;2023-02-15T03:54:30;1.70;99.90
33837;DHT22;20140;49.356;8.812;2023-02-15T03:57:25;1.70;99.90
33837;DHT22;20140;49.356;8.812;2023-02-15T04:00:14;1.70;99.90
33837;DHT22;20140;49.356;8.812;2023-02-15T04:05:24;1.70;99.90
33837;DHT22;20140;49.356;8.812;2023-02-15T04:07:50;1.60;99.90
33837;DHT22;20140;49.356;8.812;2023-02-15T04:10:15;1.60;99.90
33837;DHT22;20140;49.356;8.812;2023-02-15T04:13:00;1.60;99.90
33837;DHT22;20140;49.356;8.812;2023-02-15T04:15:25;1.70;99.90
33837;DHT22;20140;49.356;8.812;2023-02-15T04:18:09;1.70;99.90
33837;DHT22;20140;49.356;8.812;2023-02-15T04:20:35;1.70;99.90
33837;DHT22;20140;49.356;8.812;2023-02-15T04:23:19;1.70;99.90
33837;DHT22;20140;49.356;8.812;2023-02-15T04:26:04;1.80;99.90
33837;DHT22;20140;49.356;8.812;2023-02-15T04:28:30;1.80;99.90
33837;DHT22;20140;49.356;8.812;2023-02-15T04:30:56;1.80;99.90
33837;DHT22;20140;49.356;8.812;2023-02-15T04:33:21;1.80;99.90
33837;DHT22;20140;49.356;8.812;2023-02-15T04:35:47;1.80;99.90
33837;DHT22;20140;49.356;8.812;2023-02-15T04:38:12;1.80;99.90
33837;DHT22;20140;49.356;8.812;2023-02-15T04:40:38;1.80;99.90
33837;DHT22;20140;49.356;8.812;2023-02-15T04:43:03;1.80;99.90
33837;DHT22;20140;49.356;8.812;2023-02-15T04:45:29;1.90;99.90
33837;DHT22;20140;49.356;8.812;2023-02-15T04:47:54;1.80;99.90
33837;DHT22;20140;49.356;8.812;2023-02-15T04:50:20;1.80;99.90
33837;DHT22;20140;49.356;8.812;2023-02-15T04:52:46;1.70;99.90
33837;DHT22;20140;49.356;8.812;2023-02-15T04:55:12;1.70;99.90
33837;DHT22;20140;49.356;8.812;2023-02-15T04:57:37;1.70;99.90
33837;DHT22;20140;49.356;8.812;2023-02-15T05:00:03;1.70;99.90
33837;DHT22;20140;49.356;8.812;2023-02-15T05:02:29;1.80;99.90
33837;DHT22;20140;49.356;8.812;2023-02-15T05:04:54;1.80;99.90
33837;DHT22;20140;49.356;8.812;2023-02-15T05:07:20;1.80;99.90
33837;DHT22;20140;49.356;8.812;2023-02-15T05:09:46;1.70;99.90
33837;DHT22;20140;49.356;8.812;2023-02-15T05:12:11;1.70;99.90
33837;DHT22;20140;49.356;8.812;2023-02-15T05:14:37;1.60;99.90
33837;DHT22;20140;49.356;8.812;2023-02-15T05:17:02;1.80;99.90
33837;DHT22;20140;49.356;8.812;2023-02-15T05:19:28;1.70;99.90
33837;DHT22;20140;49.356;8.812;2023-02-15T05:21:54;1.60;99.90
33837;DHT22;20140;49.356;8.812;2023-02-15T05:24:19;1.70;99.90
33837;DHT22;20140;49.356;8.812;2023-02-15T05:27:04;1.70;99.90
33837;DHT22;20140;49.356;8.812;2023-02-15T05:29:48;1.70;99.90
33837;DHT22;20140;49.356;8.812;2023-02-15T05:32:14;1.70;99.90
33837;DHT22;20140;49.356;8.812;2023-02-15T05:34:39;1.70;99.90
33837;DHT22;20140;49.356;8.812;2023-02-15T05:37:05;1.80;99.90
33837;DHT22;20140;49.356;8.812;2023-02-15T05:39:30;1.80;99.90
33837;DHT22;20140;49.356;8.812;2023-02-15T05:41:59;1.80;99.90
33837;DHT22;20140;49.356;8.812;2023-02-15T05:44:25;1.80;99.90
33837;DHT22;20140;49.356;8.812;2023-02-15T05:46:50;1.80;99.90
33837;DHT22;20140;49.356;8.812;2023-02-15T05:49:16;1.80;99.90
33837;DHT22;20140;49.356;8.812;2023-02-15T05:51:41;1.80;99.90
33837;DHT22;20140;49.356;8.812;2023-02-15T05:54:07;1.80;99.90
33837;DHT22;20140;49.356;8.812;2023-02-15T05:56:33;1.80;99.90
33837;DHT22;20140;49.356;8.812;2023-02-15T05:58:58;1.80;99.90
33837;DHT22;20140;49.356;8.812;2023-02-15T06:01:24;1.80;99.90
33837;DHT22;20140;49.356;8.812;2023-02-15T06:03:49;1.80;99.90
33837;DHT22;20140;49.356;8.812;2023-02-15T06:06:15;1.80;99.90
33837;DHT22;20140;49.356;8.812;2023-02-15T06:08:41;1.80;99.90
33837;DHT22;20140;49.356;8.812;2023-02-15T06:11:07;1.80;99.90
33837;DHT22;20140;49.356;8.812;2023-02-15T06:13:33;1.80;99.90
33837;DHT22;20140;49.356;8.812;2023-02-15T06:15:59;1.80;99.90
33837;DHT22;20140;49.356;8.812;2023-02-15T06:18:25;1.80;99.90
33837;DHT22;20140;49.356;8.812;2023-02-15T06:20:50;1.80;99.90
33837;DHT22;20140;49.356;8.812;2023-02-15T06:23:16;1.80;99.90
33837;DHT22;20140;49.356;8.812;2023-02-15T06:25:43;1.90;99.90
33837;DHT22;20140;49.356;8.812;2023-02-15T06:28:09;1.90;99.90
33837;DHT22;20140;49.356;8.812;2023-02-15T06:30:34;1.90;99.90
33837;DHT22;20140;49.356;8.812;2023-02-15T06:33:00;1.80;99.90
33837;DHT22;20140;49.356;8.812;2023-02-15T06:35:26;1.80;99.90
33837;DHT22;20140;49.356;8.812;2023-02-15T06:37:51;1.70;99.90
33837;DHT22;20140;49.356;8.812;2023-02-15T06:40:17;1.70;99.90
33837;DHT22;20140;49.356;8.812;2023-02-15T06:42:42;1.80;99.90
33837;DHT22;20140;49.356;8.812;2023-02-15T06:45:09;1.80;99.90
33837;DHT22;20140;49.356;8.812;2023-02-15T06:47:34;1.80;99.90
33837;DHT22;20140;49.356;8.812;2023-02-15T06:50:00;1.80;99.90
33837;DHT22;20140;49.356;8.812;2023-02-15T06:52:26;1.80;99.90
33837;DHT22;20140;49.356;8.812;2023-02-15T06:54:51;1.90;99.90
33837;DHT22;20140;49.356;8.812;2023-02-15T06:57:17;1.80;99.90
33837;DHT22;20140;49.356;8.812;2023-02-15T06:59:42;1.80;99.90
33837;DHT22;20140;49.356;8.812;2023-02-15T07:02:14;1.70;99.90
33837;DHT22;20140;49.356;8.812;2023-02-15T07:04:39;1.80;99.90
33837;DHT22;20140;49.356;8.812;2023-02-15T07:07:08;1.70;99.90
33837;DHT22;20140;49.356;8.812;2023-02-15T07:09:34;1.70;99.90
33837;DHT22;20140;49.356;8.812;2023-02-15T07:12:00;1.70;99.90
33837;DHT22;20140;49.356;8.812;2023-02-15T07:14:44;1.70;99.90
33837;DHT22;20140;49.356;8.812;2023-02-15T07:17:09;1.70;99.90
33837;DHT22;20140;49.356;8.812;2023-02-15T07:19:35;1.60;99.90
33837;DHT22;20140;49.356;8.812;2023-02-15T07:22:00;1.60;99.90
33837;DHT22;20140;49.356;8.812;2023-02-15T07:24:26;1.60;99.90
33837;DHT22;20140;49.356;8.812;2023-02-15T07:26:51;1.60;99.90
33837;DHT22;20140;49.356;8.812;2023-02-15T07:29:17;1.60;99.90
33837;DHT22;20140;49.356;8.812;2023-02-15T07:31:43;1.70;99.90
33837;DHT22;20140;49.356;8.812;2023-02-15T07:34:10;1.50;99.90
33837;DHT22;20140;49.356;8.812;2023-02-15T07:36:36;1.50;99.90
33837;DHT22;20140;49.356;8.812;2023-02-15T07:39:02;1.50;99.90
33837;DHT22;20140;49.356;8.812;2023-02-15T07:41:28;1.70;99.90
33837;DHT22;20140;49.356;8.812;2023-02-15T07:43:53;1.70;99.90
33837;DHT22;20140;49.356;8.812;2023-02-15T07:46:19;1.70;99.90
33837;DHT22;20140;49.356;8.812;2023-02-15T07:48:46;1.70;99.90
33837;DHT22;20140;49.356;8.812;2023-02-15T07:51:12;1.70;99.90
33837;DHT22;20140;49.356;8.812;2023-02-15T07:53:39;1.70;99.90
33837;DHT22;20140;49.356;8.812;2023-02-15T07:56:11;1.70;99.90
33837;DHT22;20140;49.356;8.812;2023-02-15T07:58:37;1.70;99.90
33837;DHT22;20140;49.356;8.812;2023-02-15T08:01:25;1.60;99.90
33837;DHT22;20140;49.356;8.812;2023-02-15T08:03:51;1.70;99.90
33837;DHT22;20140;49.356;8.812;2023-02-15T08:06:17;1.70;99.90
33837;DHT22;20140;49.356;8.812;2023-02-15T08:08:43;1.70;99.90
33837;DHT22;20140;49.356;8.812;2023-02-15T08:16:40;1.60;99.90
33837;DHT22;20140;49.356;8.812;2023-02-15T08:19:07;1.60;99.90
33837;DHT22;20140;49.356;8.812;2023-02-15T08:21:34;1.60;99.90
33837;DHT22;20140;49.356;8.812;2023-02-15T08:24:01;1.50;99.90
33837;DHT22;20140;49.356;8.812;2023-02-15T08:26:28;1.40;99.90
33837;DHT22;20140;49.356;8.812;2023-02-15T08:28:54;1.40;99.90
33837;DHT22;20140;49.356;8.812;2023-02-15T08:31:20;1.40;99.90
33837;DHT22;20140;49.356;8.812;2023-02-15T08:33:47;1.30;99.90
33837;DHT22;20140;49.356;8.812;2023-02-15T08:36:16;1.50;99.90
33837;DHT22;20140;49.356;8.812;2023-02-15T08:38:42;1.40;99.90
33837;DHT22;20140;49.356;8.812;2023-02-15T08:41:18;1.50;99.90
33837;DHT22;20140;49.356;8.812;2023-02-15T08:43:46;1.40;99.90
33837;DHT22;20140;49.356;8.812;2023-02-15T08:46:13;1.50;99.90
33837;DHT22;20140;49.356;8.812;2023-02-15T08:48:39;1.50;99.90
33837;DHT22;20140;49.356;8.812;2023-02-15T08:51:10;1.50;99.90
33837;DHT22;20140;49.356;8.812;2023-02-15T08:53:38;1.60;99.90
33837;DHT22;20140;49.356;8.812;2023-02-15T08:56:04;1.70;99.90
33837;DHT22;20140;49.356;8.812;2023-02-15T08:58:30;1.60;99.90
33837;DHT22;20140;49.356;8.812;2023-02-15T09:00:56;1.70;99.90
33837;DHT22;20140;49.356;8.812;2023-02-15T09:03:22;1.70;99.90
33837;DHT22;20140;49.356;8.812;2023-02-15T09:05:47;1.70;99.90
33837;DHT22;20140;49.356;8.812;2023-02-15T09:08:13;1.80;99.90
33837;DHT22;20140;49.356;8.812;2023-02-15T09:10:38;1.70;99.90
33837;DHT22;20140;49.356;8.812;2023-02-15T09:13:04;1.60;99.90
33837;DHT22;20140;49.356;8.812;2023-02-15T09:15:29;1.80;99.90
33837;DHT22;20140;49.356;8.812;2023-02-15T09:17:55;1.80;99.90
33837;DHT22;20140;49.356;8.812;2023-02-15T09:20:21;1.80;99.90
33837;DHT22;20140;49.356;8.812;2023-02-15T09:22:47;1.70;99.90
33837;DHT22;20140;49.356;8.812;2023-02-15T09:25:13;1.70;99.90
33837;DHT22;20140;49.356;8.812;2023-02-15T09:27:39;1.60;99.90
33837;DHT22;20140;49.356;8.812;2023-02-15T09:30:05;1.80;99.90
33837;DHT22;20140;49.356;8.812;2023-02-15T09:32:31;1.80;99.90
33837;DHT22;20140;49.356;8.812;2023-02-15T09:34:56;1.80;99.90
33837;DHT22;20140;49.356;8.812;2023-02-15T09:37:22;1.90;99.90
33837;DHT22;20140;49.356;8.812;2023-02-15T09:39:47;2.00;99.90
33837;DHT22;20140;49.356;8.812;2023-02-15T09:56:15;1.90;99.90
33837;DHT22;20140;49.356;8.812;2023-02-15T10:10:14;1.70;99.90
33837;DHT22;20140;49.356;8.812;2023-02-15T10:13:00;1.70;99.90
33837;DHT22;20140;49.356;8.812;2023-02-15T10:24:12;2.20;99.90
33837;DHT22;20140;49.356;8.812;2023-02-15T10:26:45;2.30;99.90
33837;DHT22;20140;49.356;8.812;2023-02-15T10:29:29;2.40;99.90
33837;DHT22;20140;49.356;8.812;2023-02-15T10:32:25;2.50;99.90
33837;DHT22;20140;49.356;8.812;2023-02-15T10:35:15;2.60;99.90
33837;DHT22;20140;49.356;8.812;2023-02-15T10:43:14;2.50;99.90
33837;DHT22;20140;49.356;8.812;2023-02-15T10:57:15;2.50;99.90
33837;DHT22;20140;49.356;8.812;2023-02-15T11:05:02;2.60;99.90
33837;DHT22;20140;49.356;8.812;2023-02-15T11:07:40;2.60;99.90
33837;DHT22;20140;49.356;8.812;2023-02-15T11:12:43;2.80;99.90
33837;DHT22;20140;49.356;8.812;2023-02-15T11:21:13;2.60;99.90
33837;DHT22;20140;49.356;8.812;2023-02-15T11:23:44;2.50;99.90
33837;DHT22;20140;49.356;8.812;2023-02-15T11:26:28;2.60;99.90
33837;DHT22;20140;49.356;8.812;2023-02-15T11:29:22;2.70;99.90
33837;DHT22;20140;49.356;8.812;2023-02-15T11:32:14;2.90;99.90
33837;DHT22;20140;49.356;8.812;2023-02-15T11:35:00;3.00;99.90
33837;DHT22;20140;49.356;8.812;2023-02-15T11:37:40;2.80;99.90
33837;DHT22;20140;49.356;8.812;2023-02-15T11:40:27;2.60;99.90
33837;DHT22;20140;49.356;8.812;2023-02-15T11:43:00;2.50;99.90
33837;DHT22;20140;49.356;8.812;2023-02-15T11:45:30;2.40;99.90
33837;DHT22;20140;49.356;8.812;2023-02-15T11:47:57;2.50;99.90
33837;DHT22;20140;49.356;8.812;2023-02-15T11:50:25;2.60;99.90
33837;DHT22;20140;49.356;8.812;2023-02-15T11:52:54;2.80;99.90
33837;DHT22;20140;49.356;8.812;2023-02-15T11:55:23;2.70;99.90
33837;DHT22;20140;49.356;8.812;2023-02-15T11:58:09;3.00;99.90
33837;DHT22;20140;49.356;8.812;2023-02-15T12:00:42;2.70;99.90
33837;DHT22;20140;49.356;8.812;2023-02-15T12:03:21;2.90;99.90
33837;DHT22;20140;49.356;8.812;2023-02-15T12:05:52;3.00;99.90
33837;DHT22;20140;49.356;8.812;2023-02-15T12:08:22;2.90;99.90
33837;DHT22;20140;49.356;8.812;2023-02-15T12:13:18;3.00;99.90
33837;DHT22;20140;49.356;8.812;2023-02-15T12:15:46;3.10;99.90
33837;DHT22;20140;49.356;8.812;2023-02-15T12:21:10;2.60;99.90
33837;DHT22;20140;49.356;8.812;2023-02-15T12:23:46;2.90;99.90
33837;DHT22;20140;49.356;8.812;2023-02-15T12:26:13;3.20;99.90
33837;DHT22;20140;49.356;8.812;2023-02-15T12:28:42;3.30;99.90
33837;DHT22;20140;49.356;8.812;2023-02-15T12:31:33;3.30;99.90
33837;DHT22;20140;49.356;8.812;2023-02-15T12:34:08;3.50;99.90
33837;DHT22;20140;49.356;8.812;2023-02-15T12:36:45;3.30;99.90
33837;DHT22;20140;49.356;8.812;2023-02-15T12:39:17;3.20;99.90
33837;DHT22;20140;49.356;8.812;2023-02-15T12:41:56;3.30;99.90
33837;DHT22;20140;49.356;8.812;2023-02-15T12:44:24;3.40;99.90
33837;DHT22;20140;49.356;8.812;2023-02-15T12:49:39;3.60;99.90
33837;DHT22;20140;49.356;8.812;2023-02-15T12:54:46;3.90;99.90
33837;DHT22;20140;49.356;8.812;2023-02-15T13:02:47;4.00;99.90
33837;DHT22;20140;49.356;8.812;2023-02-15T13:05:35;4.00;99.90
33837;DHT22;20140;49.356;8.812;2023-02-15T13:10:51;4.30;99.90
33837;DHT22;20140;49.356;8.812;2023-02-15T13:13:20;5.00;99.90
33837;DHT22;20140;49.356;8.812;2023-02-15T13:15:50;5.60;99.90
33837;DHT22;20140;49.356;8.812;2023-02-15T13:18:23;5.60;99.90
33837;DHT22;20140;49.356;8.812;2023-02-15T13:20:52;6.10;99.90
33837;DHT22;20140;49.356;8.812;2023-02-15T13:23:27;6.40;99.90
33837;DHT22;20140;49.356;8.812;2023-02-15T13:25:58;6.60;99.90
33837;DHT22;20140;49.356;8.812;2023-02-15T13:28:49;6.20;99.90
33837;DHT22;20140;49.356;8.812;2023-02-15T13:31:15;6.70;99.90
33837;DHT22;20140;49.356;8.812;2023-02-15T13:33:46;7.30;99.90
33837;DHT22;20140;49.356;8.812;2023-02-15T13:38:52;7.80;99.90
33837;DHT22;20140;49.356;8.812;2023-02-15T13:44:37;8.50;99.90
33837;DHT22;20140;49.356;8.812;2023-02-15T13:47:23;9.00;99.90
33837;DHT22;20140;49.356;8.812;2023-02-15T13:52:34;8.30;99.90
33837;DHT22;20140;49.356;8.812;2023-02-15T14:04:14;9.60;99.90
33837;DHT22;20140;49.356;8.812;2023-02-15T14:12:36;9.40;99.90
33837;DHT22;20140;49.356;8.812;2023-02-15T14:15:26;9.00;99.90
33837;DHT22;20140;49.356;8.812;2023-02-15T14:18:00;8.70;99.90
33837;DHT22;20140;49.356;8.812;2023-02-15T14:20:41;8.80;99.90
33837;DHT22;20140;49.356;8.812;2023-02-15T14:25:56;10.60;99.90
33837;DHT22;20140;49.356;8.812;2023-02-15T14:31:09;12.30;99.90
33837;DHT22;20140;49.356;8.812;2023-02-15T14:33:41;12.20;99.90
33837;DHT22;20140;49.356;8.812;2023-02-15T14:36:12;12.50;99.90
33837;DHT22;20140;49.356;8.812;2023-02-15T14:39:06;13.40;99.90
33837;DHT22;20140;49.356;8.812;2023-02-15T14:41:59;13.70;99.90
33837;DHT22;20140;49.356;8.812;2023-02-15T14:44:35;13.70;99.90
33837;DHT22;20140;49.356;8.812;2023-02-15T14:47:10;13.10;99.90
33837;DHT22;20140;49.356;8.812;2023-02-15T14:49:39;12.90;99.90
33837;DHT22;20140;49.356;8.812;2023-02-15T14:52:06;11.60;99.90
33837;DHT22;20140;49.356;8.812;2023-02-15T15:05:35;14.00;99.90
33837;DHT22;20140;49.356;8.812;2023-02-15T15:08:42;12.50;99.90
33837;DHT22;20140;49.356;8.812;2023-02-15T15:13:58;10.40;99.90
33837;DHT22;20140;49.356;8.812;2023-02-15T15:16:27;10.50;99.90
33837;DHT22;20140;49.356;8.812;2023-02-15T15:18:53;11.00;99.90
33837;DHT22;20140;49.356;8.812;2023-02-15T15:21:54;11.30;99.90
33837;DHT22;20140;49.356;8.812;2023-02-15T15:38:51;11.10;99.90
33837;DHT22;20140;49.356;8.812;2023-02-15T15:41:40;10.60;99.90
33837;DHT22;20140;49.356;8.812;2023-02-15T15:49:26;11.10;99.90
33837;DHT22;20140;49.356;8.812;2023-02-15T15:51:54;11.40;99.90
33837;DHT22;20140;49.356;8.812;2023-02-15T15:54:20;11.00;99.90
33837;DHT22;20140;49.356;8.812;2023-02-15T15:56:58;11.50;99.90
33837;DHT22;20140;49.356;8.812;2023-02-15T15:59:33;11.90;99.90
33837;DHT22;20140;49.356;8.812;2023-02-15T16:02:07;12.10;99.90
33837;DHT22;20140;49.356;8.812;2023-02-15T16:04:36;11.90;99.90
33837;DHT22;20140;49.356;8.812;2023-02-15T16:07:25;11.60;99.90
33837;DHT22;20140;49.356;8.812;2023-02-15T16:10:02;11.40;99.90
33837;DHT22;20140;49.356;8.812;2023-02-15T16:12:30;11.10;99.90
33837;DHT22;20140;49.356;8.812;2023-02-15T16:14:56;10.80;99.90
33837;DHT22;20140;49.356;8.812;2023-02-15T16:17:28;10.40;99.90
33837;DHT22;20140;49.356;8.812;2023-02-15T16:20:14;9.70;99.90
33837;DHT22;20140;49.356;8.812;2023-02-15T16:22:40;9.20;99.90
33837;DHT22;20140;49.356;8.812;2023-02-15T16:25:31;8.70;99.90
33837;DHT22;20140;49.356;8.812;2023-02-15T16:28:06;8.30;99.90
33837;DHT22;20140;49.356;8.812;2023-02-15T16:30:35;8.00;99.90
33837;DHT22;20140;49.356;8.812;2023-02-15T16:35:32;7.60;99.90
33837;DHT22;20140;49.356;8.812;2023-02-15T16:37:57;7.40;99.90
33837;DHT22;20140;49.356;8.812;2023-02-15T16:43:13;7.20;99.90
33837;DHT22;20140;49.356;8.812;2023-02-15T16:45:35;7.00;99.90
33837;DHT22;20140;49.356;8.812;2023-02-15T16:48:08;6.70;99.90
33837;DHT22;20140;49.356;8.812;2023-02-15T16:50:37;6.40;99.90
33837;DHT22;20140;49.356;8.812;2023-02-15T16:53:04;6.00;99.90
33837;DHT22;20140;49.356;8.812;2023-02-15T16:55:35;5.80;99.90
33837;DHT22;20140;49.356;8.812;2023-02-15T16:58:04;5.60;99.90
33837;DHT22;20140;49.356;8.812;2023-02-15T17:00:39;5.50;99.90
33837;DHT22;20140;49.356;8.812;2023-02-15T17:05:44;5.20;99.90
33837;DHT22;20140;49.356;8.812;2023-02-15T17:08:16;5.10;99.90
33837;DHT22;20140;49.356;8.812;2023-02-15T17:10:45;4.90;99.90
33837;DHT22;20140;49.356;8.812;2023-02-15T17:13:13;4.70;99.90
33837;DHT22;20140;49.356;8.812;2023-02-15T17:18:44;4.50;99.90
33837;DHT22;20140;49.356;8.812;2023-02-15T17:21:13;4.40;99.90
33837;DHT22;20140;49.356;8.812;2023-02-15T17:23:50;4.20;99.90
33837;DHT22;20140;49.356;8.812;2023-02-15T17:26:19;4.10;99.90
33837;DHT22;20140;49.356;8.812;2023-02-15T17:28:47;4.00;99.90
33837;DHT22;20140;49.356;8.812;2023-02-15T17:31:16;3.90;99.90
33837;DHT22;20140;49.356;8.812;2023-02-15T17:33:42;3.70;99.90
33837;DHT22;20140;49.356;8.812;2023-02-15T17:36:16;3.70;99.90
33837;DHT22;20140;49.356;8.812;2023-02-15T17:41:25;3.40;99.90
33837;DHT22;20140;49.356;8.812;2023-02-15T17:43:50;3.40;99.90
33837;DHT22;20140;49.356;8.812;2023-02-15T17:46:16;3.20;99.90
33837;DHT22;20140;49.356;8.812;2023-02-15T17:48:47;3.10;99.90
33837;DHT22;20140;49.356;8.812;2023-02-15T17:51:14;3.00;99.90
33837;DHT22;20140;49.356;8.812;2023-02-15T17:53:41;3.00;99.90
33837;DHT22;20140;49.356;8.812;2023-02-15T17:56:27;2.80;99.90
33837;DHT22;20140;49.356;8.812;2023-02-15T17:58:52;2.70;99.90
33837;DHT22;20140;49.356;8.812;2023-02-15T18:01:19;2.70;99.90
33837;DHT22;20140;49.356;8.812;2023-02-15T18:04:04;2.60;99.90
33837;DHT22;20140;49.356;8.812;2023-02-15T18:06:51;2.50;99.90
33837;DHT22;20140;49.356;8.812;2023-02-15T18:09:35;2.50;99.90
33837;DHT22;20140;49.356;8.812;2023-02-15T18:14:46;2.50;99.90
33837;DHT22;20140;49.356;8.812;2023-02-15T18:17:13;2.40;99.90
33837;DHT22;20140;49.356;8.812;2023-02-15T18:19:40;2.40;99.90
33837;DHT22;20140;49.356;8.812;2023-02-15T18:22:14;2.40;99.90
33837;DHT22;20140;49.356;8.812;2023-02-15T18:24:40;2.40;99.90
33837;DHT22;20140;49.356;8.812;2023-02-15T18:27:06;2.40;99.90
33837;DHT22;20140;49.356;8.812;2023-02-15T18:29:32;2.20;99.90
33837;DHT22;20140;49.356;8.812;2023-02-15T18:31:58;2.10;99.90
33837;DHT22;20140;49.356;8.812;2023-02-15T18:34:36;2.00;99.90
33837;DHT22;20140;49.356;8.812;2023-02-15T18:37:04;2.00;99.90
33837;DHT22;20140;49.356;8.812;2023-02-15T18:39:47;1.90;99.90
33837;DHT22;20140;49.356;8.812;2023-02-15T18:42:23;1.90;99.90
33837;DHT22;20140;49.356;8.812;2023-02-15T18:44:52;1.80;99.90
33837;DHT22;20140;49.356;8.812;2023-02-15T18:47:18;1.80;99.90
33837;DHT22;20140;49.356;8.812;2023-02-15T18:49:44;1.70;99.90
33837;DHT22;20140;49.356;8.812;2023-02-15T18:52:31;1.70;99.90
33837;DHT22;20140;49.356;8.812;2023-02-15T18:54:59;1.60;99.90
33837;DHT22;20140;49.356;8.812;2023-02-15T18:57:27;1.70;99.90
33837;DHT22;20140;49.356;8.812;2023-02-15T18:59:53;1.70;99.90
33837;DHT22;20140;49.356;8.812;2023-02-15T19:02:18;1.70;99.90
33837;DHT22;20140;49.356;8.812;2023-02-15T19:04:45;1.60;99.90
33837;DHT22;20140;49.356;8.812;2023-02-15T19:09:48;1.60;99.90
33837;DHT22;20140;49.356;8.812;2023-02-15T19:12:14;1.50;99.90
33837;DHT22;20140;49.356;8.812;2023-02-15T19:14:40;1.50;99.90
33837;DHT22;20140;49.356;8.812;2023-02-15T19:17:15;1.40;99.90
33837;DHT22;20140;49.356;8.812;2023-02-15T19:19:41;1.30;99.90
33837;DHT22;20140;49.356;8.812;2023-02-15T19:22:18;1.20;99.90
33837;DHT22;20140;49.356;8.812;2023-02-15T19:24:46;1.20;99.90